Forside
METAR-TAF:

METAR-TAF

Lufthavne :

Casement Aerodrome

Dublin, Irland

Breddekreds: 53-18-06N, længdekreds: 6-27-04W, højde: 97 m

Aktuelle vejr

Denne rapport blev lavet for 49 minutter siden, kl. 13:00 UTC
Vind 5 kt fra nordøst
Temperatur 9°C
Fugtighed 66%
Tryk 1035 hPa
Sigt 10 km eller mere
Nogle få skyer i en højde af 2300 ft
Spredte skyer i en højde af 2800 ft
Brudte skyer i en højde af 4000 ft

METAR: EIME 311300Z 05005KT 9999 FEW023 SCT028 BKN040 09/03 Q1035

Tid: 14:49 (13:49 UTC)

Vejrudsigter

Denne rapport blev lavet for 2 timer og 49 minutter siden, kl. 11:00 UTC
Foreløbig gælder fra 31 på 12 UTC til 31 på 21 UTC
Vind 7 kt fra nordnordøst
Sigt 10 km eller mere
Nogle få skyer i en højde af 1800 ft
Spredte skyer i en højde af 2500 ft

TAF: EIME 311100Z 3112/3121 03007KT 9999 FEW018 SCT025

Vejrobservationer og prognoser fra mere end 4000 lufthavne (METAR og TAF).

De gule og røde prikker repræsenterer de meteorologiske stationer.

Flyt musen over at se navnet på stationen.

Så klik over at se vejr observationer og prognoser.

At skifte det kort: Klik på de grønne knapper med et sort kors for at zoome ind; på den grønne knap med en bindestreg for at zoome ud; eller på de grønne pile for tilstødende kort.


METAR-TAF: